Time;durP1;ratioP1;P1;durP2;ratioP2;P2;SDS_P1;SDS_P2;PMS_P1;PMS_P2;Temp;Humidity;BMP_temperature;BMP_pressure;BME280_temperature;BME280_humidity;BME280_pressure;Samples;Min_cycle;Max_cycle;Signal;HPM_P1;HPM_P2
2023/04/27 00:01:51;;;;;;;3.60;2.20;;;2.50;99.90;1.50;100194;;;;573379;246;24081;-80
2023/04/27 00:04:19;;;;;;;5.77;2.30;;;2.50;99.90;1.50;100203;;;;573323;246;24164;-80
2023/04/27 00:06:46;;;;;;;3.77;1.90;;;2.50;99.90;1.50;100189;;;;568557;246;24076;-76
2023/04/27 00:09:14;;;;;;;5.50;2.83;;;2.50;99.90;1.50;100197;;;;568763;246;24128;-80
2023/04/27 00:11:48;;;;;;;7.50;2.50;;;2.50;99.90;1.50;100199;;;;574506;246;24079;-81
2023/04/27 00:14:16;;;;;;;3.97;2.40;;;2.50;99.90;1.50;100193;;;;573696;246;24099;-78
2023/04/27 00:16:44;;;;;;;6.17;2.80;;;2.50;99.90;1.50;100197;;;;582528;246;24063;-80
2023/04/27 00:19:14;;;;;;;4.83;2.90;;;2.50;99.90;1.40;100187;;;;573748;246;24112;-81
2023/04/27 00:21:40;;;;;;;5.07;2.50;;;2.40;99.90;1.40;100192;;;;573661;246;25152;-83
2023/04/27 00:24:08;;;;;;;3.83;2.33;;;2.40;99.90;1.40;100195;;;;573624;246;24118;-78
2023/04/27 00:26:40;;;;;;;6.13;2.77;;;2.40;99.90;1.40;100192;;;;573025;246;24113;-78
2023/04/27 00:29:13;;;;;;;6.00;2.80;;;2.40;99.90;1.50;100195;;;;572892;246;24128;-80
2023/04/27 00:31:38;;;;;;;4.20;2.57;;;2.40;99.90;1.40;100192;;;;572530;246;24092;-79
2023/04/27 00:34:06;;;;;;;4.77;2.77;;;2.40;99.90;1.40;100192;;;;572775;246;24078;-79
2023/04/27 00:36:36;;;;;;;5.07;2.50;;;2.40;99.90;1.50;100197;;;;572890;246;24065;-84
2023/04/27 00:39:02;;;;;;;5.87;3.10;;;2.40;99.90;1.50;100198;;;;570074;246;24100;-80
2023/04/27 00:41:30;;;;;;;7.43;2.93;;;2.50;99.90;1.50;100203;;;;572946;246;24105;-84
2023/04/27 00:43:58;;;;;;;4.13;2.43;;;2.50;99.90;1.50;100211;;;;573071;246;24125;-80
2023/04/27 00:46:29;;;;;;;7.20;2.37;;;2.50;99.90;1.50;100194;;;;573170;246;24132;-79
2023/04/27 00:48:58;;;;;;;5.97;2.37;;;2.50;99.90;1.50;100200;;;;572963;246;24172;-79
2023/04/27 00:51:26;;;;;;;3.40;1.97;;;2.50;99.90;1.50;100190;;;;572869;246;24135;-83
2023/04/27 00:53:50;;;;;;;5.47;3.03;;;2.50;99.90;1.50;100196;;;;572619;246;24074;-79
2023/04/27 00:56:21;;;;;;;3.10;2.17;;;2.50;99.90;1.60;100202;;;;559587;252;24147;-80
2023/04/27 00:58:46;;;;;;;6.33;2.40;;;2.50;99.90;1.60;100206;;;;572412;246;24144;-80
2023/04/27 01:01:14;;;;;;;7.10;2.60;;;2.50;99.90;1.60;100206;;;;574049;246;24065;-79
2023/04/27 01:03:45;;;;;;;3.40;2.60;;;2.50;99.90;1.50;100209;;;;574127;246;25108;-78
2023/04/27 01:06:13;;;;;;;3.57;2.37;;;2.50;99.90;1.50;100202;;;;574207;246;24081;-79
2023/04/27 01:08:45;;;;;;;7.90;2.87;;;2.50;99.90;1.50;100207;;;;574579;246;24095;-78
2023/04/27 01:11:09;;;;;;;6.90;3.40;;;2.50;99.90;1.60;100213;;;;569438;246;35108;-79
2023/04/27 01:13:41;;;;;;;3.40;2.47;;;2.50;99.90;1.60;100216;;;;574355;246;24080;-82
2023/04/27 01:16:09;;;;;;;6.37;2.80;;;2.60;99.90;1.60;100213;;;;573940;246;24062;-81
2023/04/27 01:18:33;;;;;;;4.67;2.83;;;2.50;99.90;1.60;100221;;;;569548;246;24073;-82
2023/04/27 01:21:02;;;;;;;7.43;3.20;;;2.60;99.90;1.60;100216;;;;568385;246;35174;-80
2023/04/27 01:23:29;;;;;;;5.73;3.00;;;2.60;99.90;1.60;100216;;;;573311;246;24097;-83
2023/04/27 01:25:58;;;;;;;6.43;2.77;;;2.60;99.90;1.60;100213;;;;573338;246;24065;-80
2023/04/27 01:28:26;;;;;;;3.57;2.53;;;2.50;99.90;1.60;100216;;;;573366;246;24105;-79
2023/04/27 01:30:58;;;;;;;6.55;3.10;;;2.60;99.90;1.60;100220;;;;568440;246;35107;-80
2023/04/27 01:33:23;;;;;;;8.63;2.97;;;2.60;99.90;1.60;100219;;;;572979;246;24096;-80
2023/04/27 01:35:55;;;;;;;6.40;2.87;;;2.50;99.90;1.60;100220;;;;573352;246;24122;-80
2023/04/27 01:38:19;;;;;;;5.30;2.77;;;2.60;99.90;1.50;100217;;;;572842;243;24110;-81
2023/04/27 01:40:50;;;;;;;5.60;3.10;;;2.50;99.90;1.50;100211;;;;572839;240;24121;-79
2023/04/27 01:43:18;;;;;;;5.28;3.12;;;2.50;99.90;1.50;100212;;;;567592;246;35132;-77
2023/04/27 01:45:43;;;;;;;3.47;2.63;;;2.50;99.90;1.50;100221;;;;568628;240;24091;-76
2023/04/27 01:48:11;;;;;;;4.53;3.00;;;2.50;99.90;1.40;100226;;;;572894;246;26216;-77
2023/04/27 01:50:39;;;;;;;7.37;2.70;;;2.40;99.90;1.40;100227;;;;572863;246;24093;-79
2023/04/27 01:53:07;;;;;;;4.73;2.63;;;2.40;99.90;1.40;100224;;;;572772;246;24066;-75
2023/04/27 01:55:38;;;;;;;8.33;3.43;;;2.40;99.90;1.30;100233;;;;572899;246;24081;-80
2023/04/27 01:58:06;;;;;;;6.17;2.87;;;2.70;99.90;1.30;100224;;;;572761;246;24069;-79
2023/04/27 02:00:31;;;;;;;5.50;2.57;;;2.30;99.90;1.30;100228;;;;568932;246;24067;-79
2023/04/27 02:02:59;;;;;;;7.97;3.33;;;2.30;99.90;1.20;100225;;;;572924;246;24065;-81
2023/04/27 02:05:27;;;;;;;6.30;2.67;;;2.20;99.90;1.20;100231;;;;568939;246;24062;-79
2023/04/27 02:07:58;;;;;;;4.83;2.77;;;2.20;99.90;1.20;100231;;;;572970;246;24115;-80
2023/04/27 02:10:23;;;;;;;3.90;3.20;;;2.20;99.90;1.20;100220;;;;572964;246;24107;-76
2023/04/27 02:12:51;;;;;;;4.70;2.90;;;2.20;99.90;1.10;100225;;;;574517;244;24082;-78
2023/04/27 02:15:18;;;;;;;5.57;2.47;;;2.20;99.90;1.10;100230;;;;574274;246;24084;-78
2023/04/27 02:17:50;;;;;;;5.33;2.87;;;2.10;99.90;1.10;100225;;;;574140;246;24051;-78
2023/04/27 02:20:15;;;;;;;4.50;2.50;;;2.10;99.90;1.10;100218;;;;573845;246;24112;-80
2023/04/27 02:22:43;;;;;;;5.00;2.87;;;2.10;99.90;1.10;100228;;;;573756;246;24077;-79
2023/04/27 02:25:14;;;;;;;8.70;3.40;;;2.10;99.90;1.10;100226;;;;573633;246;24110;-81
2023/04/27 02:27:39;;;;;;;3.83;3.00;;;2.10;99.90;1.10;100218;;;;573381;246;24120;-80
2023/04/27 02:30:10;;;;;;;6.27;3.00;;;2.10;99.90;1.10;100225;;;;573120;246;24105;-80
2023/04/27 02:32:39;;;;;;;5.97;3.30;;;2.10;99.90;1.10;100223;;;;573075;246;25114;-77
2023/04/27 02:35:10;;;;;;;6.77;3.10;;;2.10;99.90;1.10;100222;;;;573184;246;24092;-80
2023/04/27 02:37:41;;;;;;;4.97;2.97;;;2.10;99.90;1.10;100225;;;;573080;246;24067;-79
2023/04/27 02:40:09;;;;;;;7.00;2.63;;;2.10;99.90;1.00;100220;;;;573540;246;24167;-79
2023/04/27 02:42:38;;;;;;;6.63;2.87;;;2.00;99.90;1.00;100222;;;;573451;246;24117;-75
2023/04/27 02:45:02;;;;;;;7.20;3.43;;;2.00;99.90;1.00;100222;;;;573667;246;24065;-83
2023/04/27 02:47:33;;;;;;;4.30;3.30;;;2.00;99.90;1.00;100231;;;;569513;246;24078;-74
2023/04/27 02:49:58;;;;;;;6.33;2.67;;;2.00;99.90;1.00;100223;;;;572688;246;24159;-74
2023/04/27 02:52:26;;;;;;;8.33;3.37;;;2.00;99.90;1.00;100231;;;;573142;246;24093;-77
2023/04/27 02:54:56;;;;;;;8.93;3.50;;;2.00;99.90;1.00;100238;;;;568083;246;35239;-76
2023/04/27 02:57:21;;;;;;;8.97;3.50;;;2.00;99.90;1.00;100240;;;;573190;246;24101;-74
2023/04/27 02:59:49;;;;;;;9.53;3.43;;;2.00;99.90;1.00;100237;;;;573377;246;24155;-73
2023/04/27 03:02:17;;;;;;;4.77;3.07;;;2.00;99.90;1.10;100240;;;;573179;246;24097;-74
2023/04/27 03:04:45;;;;;;;6.47;3.93;;;2.00;99.90;1.10;100246;;;;573155;246;25109;-74
2023/04/27 03:07:14;;;;;;;7.57;3.57;;;2.10;99.90;1.10;100254;;;;573107;246;24086;-76
2023/04/27 03:09:42;;;;;;;7.80;3.20;;;2.00;99.90;1.10;100249;;;;572783;246;24072;-74
2023/04/27 03:12:10;;;;;;;7.00;3.03;;;2.10;99.90;1.00;100249;;;;572865;246;24072;-74
2023/04/27 03:14:38;;;;;;;4.03;3.20;;;2.00;99.90;1.10;100251;;;;573027;246;24061;-74
2023/04/27 03:17:05;;;;;;;5.70;3.27;;;2.10;99.90;1.10;100249;;;;573089;246;24107;-77
2023/04/27 03:19:33;;;;;;;7.47;3.40;;;2.10;99.90;1.10;100258;;;;573024;246;24153;-78
2023/04/27 03:22:01;;;;;;;8.77;3.73;;;2.10;99.90;1.10;100257;;;;573280;246;24075;-76
2023/04/27 03:24:29;;;;;;;6.93;4.07;;;2.10;99.90;1.10;100260;;;;574689;246;24127;-79
2023/04/27 03:26:57;;;;;;;6.53;3.77;;;2.10;99.90;1.10;100261;;;;574223;246;24053;-79
2023/04/27 03:29:25;;;;;;;7.07;3.60;;;2.10;99.90;1.20;100258;;;;574069;246;24072;-79
2023/04/27 03:31:54;;;;;;;10.67;3.83;;;2.10;99.90;1.20;100265;;;;570408;246;24091;-75
2023/04/27 03:34:22;;;;;;;5.27;3.63;;;2.10;99.90;1.20;100270;;;;574855;246;24091;-75
2023/04/27 03:36:49;;;;;;;6.93;3.80;;;2.20;99.90;1.30;100264;;;;574729;246;24064;-77
2023/04/27 03:39:17;;;;;;;6.00;3.67;;;2.20;99.90;1.30;100261;;;;573926;246;24125;-75
2023/04/27 03:41:45;;;;;;;8.33;3.97;;;2.30;99.90;1.40;100264;;;;573436;246;24073;-77
2023/04/27 03:44:13;;;;;;;6.12;4.32;;;2.30;99.90;1.40;100263;;;;568147;246;35198;-77
2023/04/27 03:46:41;;;;;;;6.10;3.00;;;2.30;99.90;1.40;100270;;;;573227;246;24124;-78
2023/04/27 03:49:09;;;;;;;8.40;3.63;;;2.40;99.90;1.50;100266;;;;573003;246;24185;-78
2023/04/27 03:51:41;;;;;;;9.13;4.13;;;2.40;99.90;1.50;100260;;;;573226;246;24093;-78
2023/04/27 03:54:08;;;;;;;7.90;3.60;;;2.50;99.90;1.60;100266;;;;573073;246;24110;-77
2023/04/27 03:56:36;;;;;;;6.57;3.73;;;2.50;99.90;1.60;100266;;;;573462;246;24125;-75
2023/04/27 03:59:07;;;;;;;9.77;4.10;;;2.50;99.90;1.70;100260;;;;572936;246;24131;-76
2023/04/27 04:01:32;;;;;;;5.53;3.80;;;2.60;99.90;1.80;100273;;;;582307;244;24075;-74
2023/04/27 04:04:00;;;;;;;9.43;3.90;;;2.70;99.90;1.80;100273;;;;573440;246;24140;-74
2023/04/27 04:06:31;;;;;;;9.43;3.23;;;2.70;99.90;1.90;100279;;;;573244;246;24107;-74
2023/04/27 04:08:56;;;;;;;7.73;4.20;;;2.80;99.90;2.00;100278;;;;573021;246;24109;-74
2023/04/27 04:11:23;;;;;;;7.43;3.43;;;2.90;99.90;2.10;100281;;;;572776;246;24082;-74
2023/04/27 04:13:51;;;;;;;7.00;3.30;;;3.00;99.90;2.20;100289;;;;573153;246;24084;-74
2023/04/27 04:16:19;;;;;;;8.00;3.57;;;3.10;99.90;2.40;100286;;;;572733;246;24127;-75
2023/04/27 04:18:47;;;;;;;9.27;4.07;;;3.20;99.90;2.50;100289;;;;572693;246;24133;-75
2023/04/27 04:21:15;;;;;;;5.03;3.90;;;3.30;99.90;2.70;100288;;;;572949;246;24096;-74
2023/04/27 04:23:43;;;;;;;8.90;3.90;;;3.50;99.90;3.50;100299;;;;572783;246;24055;-75
2023/04/27 04:26:12;;;;;;;4.90;2.60;;;4.20;99.90;4.90;100297;;;;572866;246;24067;-75
2023/04/27 04:28:39;;;;;;;10.93;2.23;;;5.50;99.90;6.40;100306;;;;572720;246;24094;-79
2023/04/27 04:31:08;;;;;;;7.50;2.70;;;7.00;99.90;7.70;100308;;;;572741;246;24082;-79
2023/04/27 04:33:35;;;;;;;6.47;2.93;;;8.40;99.90;9.00;100315;;;;573192;246;24122;-78
2023/04/27 04:36:06;;;;;;;3.00;2.13;;;9.80;99.90;10.20;100324;;;;574353;246;24155;-79
2023/04/27 04:38:33;;;;;;;2.70;1.37;;;11.10;99.90;11.40;100315;;;;573999;240;24057;-78
2023/04/27 04:41:01;;;;;;;6.83;2.00;;;12.20;99.90;12.40;100324;;;;573550;246;24066;-78
2023/04/27 04:43:33;;;;;;;2.03;1.63;;;13.40;99.90;13.20;100322;;;;573729;246;24071;-79
2023/04/27 04:45:57;;;;;;;3.63;1.93;;;14.20;99.90;13.70;100331;;;;572988;246;24176;-75
2023/04/27 04:48:25;;;;;;;4.77;2.30;;;14.80;99.90;14.40;100333;;;;573677;246;24139;-77
2023/04/27 04:50:53;;;;;;;6.53;2.47;;;15.40;99.90;15.10;100333;;;;573349;246;24058;-77
2023/04/27 04:53:21;;;;;;;6.00;2.33;;;16.10;99.90;15.70;100337;;;;573125;246;24081;-75
2023/04/27 04:55:50;;;;;;;3.73;2.03;;;17.40;95.80;16.50;100343;;;;573101;246;24050;-74
2023/04/27 04:58:17;;;;;;;6.73;2.43;;;17.40;95.80;17.30;100343;;;;573016;246;24062;-79
2023/04/27 05:00:45;;;;;;;4.60;2.17;;;18.20;92.80;18.00;100341;;;;572843;246;24159;-79
2023/04/27 05:03:13;;;;;;;5.27;2.30;;;18.90;90.20;18.50;100341;;;;572479;246;24130;-79
2023/04/27 05:05:41;;;;;;;2.93;1.97;;;19.40;84.50;19.10;100358;;;;572977;246;23155;-79
2023/04/27 05:08:09;;;;;;;3.43;1.90;;;20.00;80.30;19.40;100353;;;;573069;246;24061;-78
2023/04/27 05:10:37;;;;;;;2.97;1.90;;;20.40;77.10;19.80;100353;;;;573369;246;24082;-77
2023/04/27 05:13:05;;;;;;;4.90;2.00;;;20.80;74.80;20.30;100363;;;;573158;246;24102;-76
2023/04/27 05:15:34;;;;;;;6.93;2.30;;;21.90;69.90;20.90;100365;;;;573138;246;24077;-78
2023/04/27 05:18:02;;;;;;;6.40;1.93;;;22.40;67.80;21.40;100364;;;;572748;246;24137;-73
2023/04/27 05:20:30;;;;;;;5.60;2.50;;;22.40;67.70;22.20;100369;;;;572806;246;24052;-75
2023/04/27 05:22:58;;;;;;;2.43;2.03;;;23.10;65.90;23.40;100373;;;;572755;246;24055;-76
2023/04/27 05:25:26;;;;;;;7.30;2.13;;;24.00;59.80;23.70;100377;;;;573014;244;24129;-79
2023/04/27 05:27:54;;;;;;;3.53;2.10;;;24.60;58.70;24.20;100382;;;;572751;246;23120;-79
2023/04/27 05:30:22;;;;;;;3.97;2.20;;;25.10;57.20;24.10;100396;;;;572739;244;23064;-77
2023/04/27 05:32:53;;;;;;;5.00;2.00;;;25.20;56.00;23.40;100391;;;;572981;246;24130;-78
2023/04/27 05:35:18;;;;;;;3.87;1.90;;;24.50;55.60;23.10;100394;;;;573014;246;24093;-76
2023/04/27 05:37:46;;;;;;;2.33;1.87;;;24.30;55.20;23.50;100394;;;;573103;246;23100;-79
2023/04/27 05:40:15;;;;;;;3.60;2.03;;;24.70;54.10;24.10;100399;;;;573667;246;23131;-78
2023/04/27 05:42:50;;;;;;;8.80;2.30;;;25.20;54.00;24.50;100406;;;;573389;246;24079;-75
2023/04/27 05:45:15;;;;;;;4.43;2.37;;;25.20;53.60;24.80;100405;;;;572729;246;23082;-75
2023/04/27 05:47:43;;;;;;;6.57;2.47;;;26.10;51.80;25.30;100412;;;;574359;246;23143;-74
2023/04/27 05:50:12;;;;;;;2.30;2.00;;;26.40;51.10;25.60;100407;;;;574233;246;23121;-75
2023/04/27 05:52:40;;;;;;;5.00;1.97;;;26.40;51.10;26.20;100415;;;;573972;246;24073;-76
2023/04/27 05:55:08;;;;;;;5.63;2.10;;;26.90;49.80;26.50;100402;;;;573871;246;23107;-75
2023/04/27 05:57:39;;;;;;;5.10;2.07;;;27.20;49.10;26.90;100406;;;;582406;245;23111;-76
2023/04/27 06:00:10;;;;;;;2.77;1.80;;;27.60;48.20;27.90;100415;;;;573354;246;24122;-77
2023/04/27 06:02:37;;;;;;;3.37;2.00;;;28.30;46.90;28.70;100420;;;;573370;246;23192;-76
2023/04/27 06:05:09;;;;;;;7.50;2.17;;;29.20;45.50;27.20;100421;;;;573098;246;24074;-80
2023/04/27 06:07:36;;;;;;;7.40;2.10;;;28.50;45.00;25.30;100419;;;;568078;246;23170;-76
2023/04/27 06:10:01;;;;;;;5.60;1.73;;;26.90;46.00;23.90;100432;;;;572633;246;23140;-77
2023/04/27 06:12:30;;;;;;;7.97;2.33;;;24.00;49.40;22.50;100432;;;;573395;246;23090;-75
2023/04/27 06:14:58;;;;;;;4.77;1.70;;;22.90;51.20;21.70;100430;;;;573348;246;24150;-75
2023/04/27 06:17:26;;;;;;;3.07;1.70;;;22.80;51.20;21.00;100430;;;;573875;246;23135;-76
2023/04/27 06:19:54;;;;;;;4.83;1.87;;;22.00;52.50;20.10;100424;;;;573549;246;23087;-75
2023/04/27 06:22:22;;;;;;;4.73;2.00;;;21.20;53.90;19.20;100418;;;;573319;246;24112;-74
2023/04/27 06:24:50;;;;;;;4.23;2.03;;;20.20;55.30;18.50;100419;;;;573175;246;24087;-74
2023/04/27 06:27:18;;;;;;;4.63;2.10;;;19.50;57.00;18.10;100418;;;;573171;246;24055;-75
2023/04/27 06:29:47;;;;;;;6.00;1.90;;;18.60;58.70;17.90;100424;;;;573203;246;24103;-75
2023/04/27 06:32:15;;;;;;;3.80;1.50;;;18.60;58.70;18.00;100427;;;;573242;246;23154;-77
2023/04/27 06:34:43;;;;;;;5.43;1.90;;;18.50;59.30;18.20;100419;;;;573182;246;23118;-76
2023/04/27 06:37:15;;;;;;;4.53;2.50;;;20.20;59.20;20.30;100425;;;;572353;246;23202;-75
2023/04/27 06:39:40;;;;;;;8.40;3.40;;;22.70;55.60;23.00;100421;;;;573276;246;24079;-75
2023/04/27 06:42:08;;;;;;;8.33;2.60;;;22.70;55.60;25.10;100421;;;;573200;246;23165;-75
2023/04/27 06:44:39;;;;;;;6.80;2.30;;;25.00;52.20;27.30;100429;;;;573148;246;24071;-76
2023/04/27 06:47:04;;;;;;;6.23;2.47;;;27.20;49.00;27.80;100430;;;;573070;246;23130;-81
2023/04/27 06:49:32;;;;;;;4.97;1.93;;;28.20;46.70;27.90;100426;;;;573161;246;23068;-76
2023/04/27 06:52:03;;;;;;;7.23;2.20;;;28.50;45.30;27.80;100423;;;;573218;246;23075;-77
2023/04/27 06:54:31;;;;;;;5.32;2.47;;;28.50;45.30;28.40;100433;;;;572932;246;23110;-79
2023/04/27 06:57:00;;;;;;;11.75;3.53;;;28.80;45.00;28.10;100433;;;;573075;246;23110;-79
2023/04/27 06:59:24;;;;;;;5.53;2.33;;;28.80;44.10;27.60;100440;;;;573914;246;23101;-74
2023/04/27 07:01:52;;;;;;;7.72;2.60;;;28.40;44.40;27.20;100442;;;;574000;246;23144;-75
2023/04/27 07:04:20;;;;;;;3.58;1.73;;;27.90;44.60;27.30;100444;;;;573557;246;24078;-77
2023/04/27 07:06:48;;;;;;;5.22;1.92;;;27.90;44.10;28.40;100442;;;;573575;246;23132;-76
2023/04/27 07:09:19;;;;;;;5.12;2.45;;;28.70;44.10;29.80;100452;;;;573393;246;23074;-75
2023/04/27 07:11:44;;;;;;;9.45;2.90;;;29.90;42.80;31.00;100448;;;;573558;246;23072;-76
2023/04/27 07:14:12;;;;;;;2.05;1.85;;;31.20;41.50;31.90;100445;;;;574015;246;23088;-79
2023/04/27 07:16:42;;;;;;;15.63;3.30;;;33.20;38.90;33.00;100455;;;;568822;246;35147;-75
2023/04/27 07:19:08;;;;;;;6.10;2.80;;;33.10;38.80;33.00;100450;;;;573587;246;23071;-78
2023/04/27 07:21:36;;;;;;;7.55;2.90;;;33.60;38.10;31.60;100456;;;;573636;246;23076;-77
2023/04/27 07:24:04;;;;;;;6.95;2.80;;;32.80;37.80;29.50;100453;;;;573746;246;23092;-80
2023/04/27 07:26:32;;;;;;;5.78;2.85;;;31.20;38.90;26.90;100459;;;;573513;246;23075;-76
2023/04/27 07:29:00;;;;;;;3.62;2.30;;;29.00;39.80;24.50;100461;;;;573606;246;24105;-77
2023/04/27 07:31:28;;;;;;;3.30;2.00;;;26.60;42.00;22.70;100458;;;;573635;246;23099;-76
2023/04/27 07:33:56;;;;;;;7.10;2.50;;;24.50;44.50;21.30;100461;;;;573629;246;23076;-76
2023/04/27 07:36:24;;;;;;;4.33;1.80;;;22.90;46.10;19.80;100448;;;;573477;246;23078;-74
2023/04/27 07:38:52;;;;;;;2.70;2.00;;;21.20;50.70;20.90;100451;;;;573056;246;24064;-75
2023/04/27 07:41:22;;;;;;;8.37;2.07;;;21.20;50.70;23.70;100456;;;;573521;246;24068;-78
2023/04/27 07:43:50;;;;;;;3.03;1.60;;;23.40;49.70;25.30;100452;;;;573417;246;24177;-80
2023/04/27 07:46:17;;;;;;;3.97;1.63;;;25.30;45.40;26.00;100463;;;;573791;246;24161;-77
2023/04/27 07:48:44;;;;;;;4.03;1.37;;;26.30;42.90;25.90;100466;;;;574162;246;23079;-78
2023/04/27 07:51:14;;;;;;;7.63;1.80;;;26.40;42.30;24.40;100461;;;;573982;246;23071;-78
2023/04/27 07:53:40;;;;;;;3.63;1.20;;;25.60;41.20;22.80;100456;;;;573919;246;24088;-79
2023/04/27 07:56:12;;;;;;;1.53;1.27;;;24.20;42.30;23.10;100466;;;;574097;246;23082;-79
2023/04/27 07:58:36;;;;;;;1.20;1.10;;;24.00;42.90;21.90;100461;;;;573034;246;23096;-77
2023/04/27 08:01:04;;;;;;;2.37;1.23;;;23.10;43.30;21.60;100456;;;;573328;246;23104;-75
2023/04/27 08:03:34;;;;;;;3.10;1.47;;;22.40;44.50;21.80;100454;;;;573025;246;24074;-74
2023/04/27 08:06:00;;;;;;;1.53;1.43;;;22.30;46.10;22.20;100461;;;;570061;246;24114;-75
2023/04/27 08:08:30;;;;;;;2.23;1.40;;;22.70;45.20;21.20;100455;;;;572986;246;24056;-75
2023/04/27 08:10:55;;;;;;;4.17;2.10;;;22.20;44.50;19.80;100456;;;;573525;246;24117;-77
2023/04/27 08:13:24;;;;;;;21.93;2.33;;;21.00;45.80;18.50;100461;;;;574305;246;24073;-77
2023/04/27 08:15:57;;;;;;;10.80;2.40;;;18.60;52.70;17.10;100464;;;;573842;246;23083;-77
2023/04/27 08:18:21;;;;;;;10.23;2.43;;;17.30;55.40;16.10;100476;;;;573660;246;23131;-76
2023/04/27 08:20:49;;;;;;;5.80;1.90;;;17.20;55.30;16.00;100470;;;;573874;246;24093;-77
2023/04/27 08:23:16;;;;;;;8.17;2.17;;;16.70;57.80;16.80;100476;;;;573926;244;24118;-79
2023/04/27 08:25:51;;;;;;;3.67;2.00;;;17.10;59.10;19.50;100478;;;;573778;246;24057;-79
2023/04/27 08:28:15;;;;;;;2.93;1.37;;;19.40;56.40;22.30;100473;;;;573338;246;23076;-79
2023/04/27 08:30:43;;;;;;;10.97;2.07;;;22.20;52.10;24.70;100495;;;;573635;246;24082;-80
2023/04/27 08:33:12;;;;;;;4.73;1.30;;;24.70;48.10;24.90;100490;;;;574071;246;24083;-78
2023/04/27 08:35:40;;;;;;;2.93;1.30;;;24.60;45.40;23.10;100490;;;;573481;246;24089;-79
2023/04/27 08:38:07;;;;;;;1.60;1.00;;;24.50;45.30;22.40;100491;;;;573331;246;23107;-78
2023/04/27 08:40:39;;;;;;;1.33;1.23;;;23.60;47.70;24.00;100494;;;;573164;246;23071;-78
2023/04/27 08:43:03;;;;;;;5.43;1.50;;;24.50;47.80;25.50;100494;;;;573194;246;23090;-81
2023/04/27 08:45:31;;;;;;;2.33;1.20;;;26.00;45.70;24.90;100489;;;;573407;246;23104;-75
2023/04/27 08:48:00;;;;;;;2.53;1.10;;;25.90;44.80;24.60;100489;;;;581993;240;23157;-76
2023/04/27 08:50:30;;;;;;;1.47;0.83;;;25.50;45.00;26.20;100490;;;;573125;246;23081;-75
2023/04/27 08:52:58;;;;;;;1.37;1.27;;;26.60;44.10;28.20;100498;;;;572946;246;23101;-75
2023/04/27 08:55:23;;;;;;;2.00;1.37;;;28.50;42.70;29.30;100502;;;;573066;246;24137;-74
2023/04/27 08:57:55;;;;;;;1.70;1.10;;;29.80;40.20;27.80;100500;;;;573029;246;24211;-76
2023/04/27 09:00:22;;;;;;;4.40;1.55;;;29.30;39.30;27.30;100497;;;;572621;240;23105;-75
2023/04/27 09:02:50;;;;;;;4.68;1.80;;;28.60;41.10;26.20;100496;;;;581565;246;23081;-76
2023/04/27 09:05:17;;;;;;;4.15;1.90;;;27.80;41.10;25.60;100491;;;;572870;244;23089;-75
2023/04/27 09:08:01;;;;;;;2.17;1.60;;;27.10;41.00;24.30;100497;;;;572553;246;24085;-77
2023/04/27 09:10:28;;;;;;;3.07;2.00;;;25.90;42.00;24.40;100482;;;;572583;246;23079;-74
2023/04/27 09:12:59;;;;;;;2.33;1.83;;;25.50;42.80;24.10;100480;;;;573262;246;23081;-76
2023/04/27 09:15:30;;;;;;;2.77;1.80;;;24.90;42.60;26.00;100479;;;;573123;246;23175;-76
2023/04/27 09:17:58;;;;;;;7.30;2.37;;;26.10;43.00;27.80;100473;;;;572873;246;23138;-76
2023/04/27 09:20:26;;;;;;;6.43;1.77;;;28.00;39.90;29.50;100481;;;;573241;246;23098;-74
2023/04/27 09:22:56;;;;;;;3.10;1.83;;;29.90;38.60;30.90;100476;;;;574775;246;23074;-76
2023/04/27 09:25:30;;;;;;;3.90;1.42;;;31.50;36.70;32.20;100470;;;;574005;246;23113;-76
2023/04/27 09:27:58;;;;;;;15.40;2.28;;;33.00;35.10;32.80;100486;;;;573964;246;23076;-76
2023/04/27 09:30:30;;;;;;;4.87;1.62;;;33.80;33.70;33.60;100484;;;;573806;246;23073;-78
2023/04/27 09:32:55;;;;;;;4.05;1.50;;;34.70;32.90;34.00;100492;;;;573383;246;23076;-75
2023/04/27 09:35:22;;;;;;;2.97;1.40;;;35.30;32.40;33.90;100490;;;;573684;246;24454;-79
2023/04/27 09:37:53;;;;;;;3.85;1.58;;;35.40;32.50;33.40;100480;;;;574118;243;23076;-77
2023/04/27 09:40:18;;;;;;;2.10;0.77;;;35.10;31.90;34.20;100489;;;;573607;243;23142;-76
2023/04/27 09:42:46;;;;;;;1.55;1.45;;;35.50;32.30;35.20;100488;;;;573718;246;23128;-76
2023/04/27 09:45:13;;;;;;;8.65;1.95;;;36.60;31.60;35.00;100497;;;;573132;246;23129;-76
2023/04/27 09:47:44;;;;;;;7.35;1.70;;;36.80;30.40;34.30;100488;;;;573109;246;23158;-77
2023/04/27 09:50:10;;;;;;;5.75;1.60;;;36.20;30.30;33.50;100465;;;;573169;246;23182;-75
2023/04/27 09:52:37;;;;;;;15.05;2.35;;;35.50;30.90;31.10;100507;;;;573074;240;23081;-74
2023/04/27 09:58:08;;;;;;;4.97;1.10;;;30.90;34.70;24.20;100527;;;;578768;245;24177;-77
2023/04/27 10:00:48;;;;;;;4.23;1.07;;;27.30;37.90;20.70;100525;;;;572136;247;23095;-76
2023/04/27 10:03:43;;;;;;;3.03;1.20;;;23.70;43.60;18.40;100531;;;;579607;247;24133;-76
2023/04/27 10:06:42;;;;;;;1.60;0.63;;;18.90;50.90;17.30;100542;;;;572155;247;24088;-77
2023/04/27 10:09:13;;;;;;;3.07;1.10;;;18.70;50.80;16.30;100534;;;;580263;242;24081;-78
2023/04/27 10:11:39;;;;;;;0.80;0.80;;;16.60;55.90;15.40;100535;;;;580467;242;23098;-77
2023/04/27 10:14:08;;;;;;;0.70;0.70;;;15.90;56.20;15.10;100526;;;;571349;247;24083;-78
2023/04/27 10:16:47;;;;;;;1.50;0.80;;;15.90;56.10;14.80;100545;;;;570082;247;25220;-78
2023/04/27 10:19:15;;;;;;;1.40;0.80;;;15.50;56.50;14.70;100534;;;;571504;247;24114;-78
2023/04/27 10:22:02;;;;;;;1.20;1.07;;;15.20;57.40;14.60;100539;;;;581188;242;24087;-78
2023/04/27 10:24:39;;;;;;;0.90;0.90;;;15.20;57.40;14.20;100548;;;;571502;247;24140;-77
2023/04/27 10:27:07;;;;;;;0.90;0.60;;;14.40;62.60;13.70;100554;;;;572239;245;25183;-78
2023/04/27 10:29:38;;;;;;;2.00;0.70;;;14.40;62.50;12.80;100536;;;;581361;242;24085;-78
2023/04/27 10:32:09;;;;;;;5.87;0.93;;;13.80;63.80;12.10;100524;;;;570588;247;24101;-77
2023/04/27 10:34:37;;;;;;;1.70;0.90;;;13.10;65.00;11.70;100531;;;;584470;242;24099;-76
2023/04/27 10:37:07;;;;;;;1.13;0.80;;;12.50;66.80;11.70;100531;;;;582500;246;24087;-77
2023/04/27 10:39:36;;;;;;;0.67;0.67;;;12.50;68.40;12.00;100530;;;;592742;242;24044;-79
2023/04/27 10:42:03;;;;;;;5.60;1.17;;;12.60;68.30;12.10;100533;;;;582412;247;24084;-76
2023/04/27 10:44:31;;;;;;;1.00;0.70;;;12.80;67.20;12.20;100527;;;;582666;242;24056;-77
2023/04/27 10:46:59;;;;;;;5.73;1.27;;;12.80;66.40;12.20;100527;;;;571898;246;24090;-80
2023/04/27 10:49:27;;;;;;;0.87;0.80;;;12.80;66.50;12.30;100526;;;;582786;242;24033;-76
2023/04/27 10:51:55;;;;;;;3.93;1.23;;;12.90;66.60;12.30;100521;;;;582667;242;24094;-76
2023/04/27 10:54:28;;;;;;;0.70;0.70;;;12.90;66.70;12.60;100519;;;;582107;242;24150;-77
2023/04/27 10:57:11;;;;;;;1.40;1.10;;;13.10;66.40;13.00;100520;;;;571532;247;24071;-77
2023/04/27 10:59:49;;;;;;;4.43;0.83;;;13.60;65.30;13.50;100516;;;;582906;242;24053;-78
2023/04/27 11:02:17;;;;;;;2.33;1.50;;;14.00;63.90;13.80;100514;;;;581269;245;24083;-77
2023/04/27 11:04:45;;;;;;;0.80;0.80;;;14.30;62.00;14.00;100511;;;;580514;242;24109;-77
2023/04/27 11:07:13;;;;;;;3.13;1.20;;;14.60;61.60;14.10;100511;;;;569489;247;24117;-77
2023/04/27 11:09:40;;;;;;;11.00;1.80;;;14.70;61.50;14.10;100508;;;;582673;242;24098;-77
2023/04/27 11:12:08;;;;;;;11.40;1.80;;;14.80;61.90;13.80;100506;;;;581455;247;24131;-78
2023/04/27 11:14:36;;;;;;;6.80;1.60;;;14.50;61.00;13.70;100512;;;;580787;242;44805;-77
2023/04/27 11:17:04;;;;;;;10.97;1.60;;;14.40;62.20;13.70;100510;;;;569434;247;24212;-76
2023/04/27 11:19:32;;;;;;;1.70;1.30;;;14.30;63.30;13.60;100511;;;;571996;247;24176;-80
2023/04/27 11:22:03;;;;;;;2.17;1.17;;;14.30;63.40;13.70;100502;;;;579883;242;24058;-77
2023/04/27 11:24:31;;;;;;;5.60;1.17;;;14.30;63.30;13.80;100508;;;;578496;248;24145;-79